Baltimore, MD

4:25 PM EDT on March 30, 2015 (GMT -0400)
Mount Vernon | | Change Station
CLOSE
Current Station
Personal Weather Station
Location: BALTIMORE, MD
Elevation: 89 ft
Nearby Weather Stations

Elev 89 ft 39.30 °N, 76.61 °W | Updated 9 minutes ago

Partly Cloudy
Partly Cloudy
64.0 °F
Feels Like 64.0 °F
N
3.1
Wind Variable Wind from WSW
Gusts 6.5 mph

Today
High -- | Low -- °F
--% Chance of Precip.
Yesterday
High -- | Low -- °F
Precip. -- in
6:54 AM 7:28 PM
Waxing Gibbous, 82% visible
Pressure 29.84 in
Visibility 10.0 miles
Clouds Scattered Clouds 7500 ft
Dew Point 30 °F
Humidity 28%
Rainfall 0.00 in
Snow Depth Not available.
UV 4 out of 12
Pollen 8.90 out of 12
Air Quality Not available.
Flu Activity Not available.
METAR KBWI 301954Z 30013G24KT 10SM SCT075 16/M03 A2983 RMK AO2 SLP103 T01611033

More Conditions Fewer Conditions

Pressure 29.84 in
Visibility 10.0 miles
Clouds Scattered Clouds 7500 ft
Dew Point 30 °F
Humidity 28%
Rainfall 0.00 in
Snow Depth Not available.
UV 4 out of 12
Pollen 8.90 out of 12
Air Quality Not available.
Flu Activity Not available.
METAR KBWI 301954Z 30013G24KT 10SM SCT075 16/M03 A2983 RMK AO2 SLP103 T01611033

More Conditions Fewer Conditions

10-Day Weather Forecast

Almanac

Astronomy

Mar. 30, 2015 Rise Set
Actual Time
Civil Twilight
Nautical Twilight
Astronomical Twilight
Moon
Length of Visible Light
Length of Day
Tomorrow will be .
, % of the Moon is Illuminated

Today's Extremes

State Highs State Lows

Community

WunderPhotos

Upload Photos

1,809,581 photos uploaded!

WunderBlogs® & News

Nearby

Air Quality

  Air Quality AQ Index Pollutant
Not available.

Snow Depth

Station Depth Elevation

Earthquake Activity

City Distance Mag. Time & Date
Minimum magnitude displayed is 2.5.

Coastal Water Temperatures

Place Temperature

Stations

Nearby Weather Stations

Station Location Temp. Windchill Dew Point Humidity Wind Precip. Elev Updated Type